Nambucca Heads, Australia
Current Conditions -  °F | °C
As of 12:17 AM on Wednesday 22 Oct 2014 (Local Time) from YCFS Reporting Station
Rain Showers Rain Showers  
Wind Chill: 15°   Ceiling: 2700
Heat Index: 15°   Visibility: 6mi
Dew Point: 14°   Wind: 7mph
Humidity: 94%   Direction: 260°W
Pressure: 30.39"   Gusts: NA
Location:  30.64°S, 153°E
Report Text: YCFS 211317Z AUTO 26006KT 9999 -SHRA SCT019 BKN027 OVC033 15/14 Q1029
Loading
Personal Weather Stations






























Interactive Weather Map
Tropical Storm Tracking
New forecast layout! Learn more

10-Day Weather Forecast

Advertisements
Track Severe Weather on mobile